Time;durP1;ratioP1;P1;durP2;ratioP2;P2;SDS_P1;SDS_P2;PMS_P1;PMS_P2;Temp;Humidity;BMP_temperature;BMP_pressure;BME280_temperature;BME280_humidity;BME280_pressure;Samples;Min_cycle;Max_cycle;Signal;HPM_P1;HPM_P2
2022/05/19 00:01:11;;;;;;;6.60;3.40;;;;;;;17.66;78.25;101308.59;108506;1278;60915;-87
2022/05/19 00:03:41;;;;;;;5.40;2.80;;;;;;;17.64;78.33;101307.58;108434;1279;73855;-87
2022/05/19 00:06:11;;;;;;;9.70;3.60;;;;;;;17.61;78.23;101301.70;108299;1278;72806;-87
2022/05/19 00:08:51;;;;;;;8.10;3.00;;;;;;;17.61;78.06;101301.60;107801;1279;73587;-87
2022/05/19 00:11:32;;;;;;;6.60;3.20;;;;;;;17.59;78.19;101302.77;107948;1279;61825;-87
2022/05/19 00:14:02;;;;;;;8.00;3.20;;;;;;;17.57;78.26;101300.50;108181;1278;60744;-88
2022/05/19 00:16:29;;;;;;;4.60;3.30;;;;;;;17.56;78.51;101296.34;108032;1278;76466;-87
2022/05/19 00:18:59;;;;;;;5.30;3.70;;;;;;;17.55;78.68;101293.37;108184;1277;72891;-87
2022/05/19 00:21:28;;;;;;;4.80;3.40;;;;;;;17.55;78.58;101292.47;107872;1279;74746;-87
2022/05/19 00:24:02;;;;;;;4.70;3.30;;;;;;;17.56;78.61;101286.80;108115;1277;62747;-87
2022/05/19 00:26:32;;;;;;;4.60;3.20;;;;;;;17.55;78.53;101283.64;108013;1278;61482;-87
2022/05/19 00:29:16;;;;;;;4.80;3.00;;;;;;;17.51;78.50;101275.88;107976;1278;76243;-87
2022/05/19 00:31:57;;;;;;;4.80;3.50;;;;;;;17.53;78.43;101282.89;107937;1279;71199;-88
2022/05/19 00:34:33;;;;;;;4.80;2.80;;;;;;;17.52;78.44;101278.09;108113;1278;74675;-88
2022/05/19 00:37:12;;;;;;;6.60;3.50;;;;;;;17.50;78.58;101276.66;108051;1278;63457;-88
2022/05/19 00:39:50;;;;;;;4.70;2.90;;;;;;;17.49;78.62;101275.79;107918;1278;59285;-88
2022/05/19 00:42:51;;;;;;;6.50;3.60;;;;;;;17.47;78.82;101277.65;108092;1278;77547;-88
2022/05/19 00:45:25;;;;;;;5.10;3.30;;;;;;;17.44;78.84;101278.92;108104;1279;72635;-88
2022/05/19 00:48:20;;;;;;;6.20;3.10;;;;;;;17.41;78.98;101275.67;108219;1278;72394;-88
2022/05/19 00:51:01;;;;;;;6.20;3.60;;;;;;;17.37;79.07;101276.89;108360;1277;62594;-87
2022/05/19 00:54:10;;;;;;;6.30;3.70;;;;;;;17.32;79.15;101270.71;108090;1277;62010;-87
2022/05/19 00:56:56;;;;;;;5.70;3.80;;;;;;;17.29;79.65;101272.58;108050;1279;75729;-88
2022/05/19 00:59:49;;;;;;;5.60;3.50;;;;;;;17.27;79.72;101266.83;108089;1279;72874;-88
2022/05/19 01:02:23;;;;;;;5.80;2.90;;;;;;;17.25;79.75;101269.95;107971;1279;74930;-88
2022/05/19 01:05:43;;;;;;;4.50;3.10;;;;;;;17.22;79.91;101268.89;107820;1279;62313;-88
2022/05/19 01:08:28;;;;;;;4.70;3.40;;;;;;;17.15;79.92;101258.54;107253;1285;62419;-88
2022/05/19 01:11:30;;;;;;;5.40;3.20;;;;;;;17.16;79.96;101262.49;107153;1285;77865;-89
2022/05/19 01:14:33;;;;;;;;;;;;;;;;;;;;;
2022/05/19 01:17:13;;;;;;;5.30;4.00;;;;;;;17.11;80.23;101261.86;108072;1277;75371;-88
2022/05/19 01:20:07;;;;;;;5.20;3.50;;;;;;;17.09;80.20;101266.81;107779;1280;63471;-87
2022/05/19 01:23:03;;;;;;;6.70;3.70;;;;;;;17.08;80.28;101265.19;107751;1279;60601;-87
2022/05/19 01:26:03;;;;;;;7.00;3.20;;;;;;;17.06;80.39;101265.60;108158;1278;76205;-87
2022/05/19 01:31:40;;;;;;;5.90;3.60;;;;;;;17.01;80.44;101258.77;107877;1271;72325;-87
2022/05/19 01:34:59;;;;;;;6.30;3.70;;;;;;;16.99;80.45;101261.35;107987;1278;65473;-87
2022/05/19 01:37:44;;;;;;;6.00;3.50;;;;;;;16.96;80.73;101261.55;108166;1277;61125;-86
2022/05/19 01:41:29;;;;;;;6.90;4.00;;;;;;;16.95;80.81;101259.98;108225;1277;74858;-88
2022/05/19 01:44:36;;;;;;;6.90;3.80;;;;;;;16.93;80.64;101260.72;107623;1280;72169;-87
2022/05/19 01:47:38;;;;;;;4.60;3.20;;;;;;;16.94;80.65;101262.27;107893;1277;74495;-88
2022/05/19 01:50:15;;;;;;;7.90;3.50;;;;;;;16.95;80.46;101263.94;107923;1277;62236;-87
2022/05/19 01:53:23;;;;;;;5.80;3.50;;;;;;;16.97;80.37;101262.91;108005;1277;60571;-87
2022/05/19 01:56:27;;;;;;;5.40;3.90;;;;;;;16.97;80.13;101263.73;107723;1280;75236;-87
2022/05/19 01:59:10;;;;;;;5.90;2.90;;;;;;;16.99;80.22;101261.77;108113;1277;71566;-86
2022/05/19 02:01:46;;;;;;;6.50;3.70;;;;;;;17.01;79.97;101258.80;107896;1277;72947;-86
2022/05/19 02:04:25;;;;;;;5.40;2.90;;;;;;;17.02;79.78;101257.04;107991;1277;63047;-86
2022/05/19 02:07:10;;;;;;;3.80;2.80;;;;;;;17.05;79.70;101257.48;107968;1277;61201;-87
2022/05/19 02:10:08;;;;;;;5.70;3.10;;;;;;;17.08;79.56;101255.94;107693;1281;74033;-87
2022/05/19 02:12:42;;;;;;;5.40;2.90;;;;;;;17.11;79.34;101256.59;107992;1280;74746;-87
2022/05/19 02:15:14;;;;;;;5.50;3.20;;;;;;;17.12;79.12;101252.83;107798;1280;73406;-87
2022/05/19 02:17:44;;;;;;;6.50;3.50;;;;;;;17.10;79.12;101245.11;107635;1278;62529;-87
2022/05/19 02:20:18;;;;;;;6.40;3.00;;;;;;;17.14;78.92;101248.84;107835;1280;60638;-87
2022/05/19 02:22:49;;;;;;;4.30;3.30;;;;;;;17.14;78.83;101245.98;107940;1280;75650;-87
2022/05/19 02:25:36;;;;;;;4.10;3.00;;;;;;;17.15;78.87;101243.05;107735;1279;72540;-87
2022/05/19 02:29:03;;;;;;;;;;;;;;;;;;;;;
2022/05/19 02:31:44;;;;;;;4.10;2.90;;;;;;;17.14;78.84;101241.65;107649;1280;62023;-88
2022/05/19 02:34:14;;;;;;;4.40;3.00;;;;;;;17.14;78.75;101236.66;108008;1280;61016;-88
2022/05/19 02:36:44;;;;;;;4.60;3.00;;;;;;;17.15;78.81;101236.96;107914;1280;74681;-88
2022/05/19 02:39:25;;;;;;;4.50;2.90;;;;;;;17.16;78.81;101235.19;108078;1280;72739;-88
2022/05/19 02:41:57;;;;;;;5.80;3.20;;;;;;;17.17;78.60;101241.29;107721;1280;74665;-87
2022/05/19 02:44:25;;;;;;;3.80;2.60;;;;;;;17.19;78.54;101238.38;107926;1279;62413;-88
2022/05/19 02:46:54;;;;;;;4.10;3.00;;;;;;;17.20;78.55;101236.59;107890;1280;62077;-88
2022/05/19 02:49:23;;;;;;;4.10;2.90;;;;;;;17.23;78.43;101235.36;107692;1280;74015;-88
2022/05/19 02:51:59;;;;;;;6.40;3.20;;;;;;;17.26;78.31;101234.08;107853;1279;72185;-87
2022/05/19 02:54:32;;;;;;;4.30;2.70;;;;;;;17.28;78.14;101233.25;107815;1280;74467;-88
2022/05/19 02:57:08;;;;;;;6.90;3.40;;;;;;;17.30;77.97;101233.33;107801;1279;61960;-88
2022/05/19 02:59:38;;;;;;;4.10;2.90;;;;;;;17.33;77.76;101230.58;107857;1279;63325;-88
2022/05/19 03:02:06;;;;;;;6.60;2.60;;;;;;;17.35;77.65;101230.83;107837;1279;75934;-88
2022/05/19 03:04:37;;;;;;;9.10;3.10;;;;;;;17.38;77.47;101227.26;107770;1280;71885;-88
2022/05/19 03:07:24;;;;;;;4.80;2.40;;;;;;;17.39;77.31;101227.10;107776;1280;71634;-88
2022/05/19 03:09:52;;;;;;;5.00;2.90;;;;;;;17.41;77.11;101223.46;107843;1279;63446;-87
2022/05/19 03:15:59;;;;;;;4.40;2.60;;;;;;;17.45;76.83;101222.19;108058;1280;73932;-88
2022/05/19 03:18:27;;;;;;;5.80;3.80;;;;;;;17.46;76.64;101224.46;107969;1279;69991;-88
2022/05/19 03:21:01;;;;;;;4.80;2.60;;;;;;;17.48;76.58;101223.83;107962;1278;72079;-88
2022/05/19 03:23:51;;;;;;;7.50;3.00;;;;;;;17.48;76.48;101226.52;107885;1280;64208;-88
2022/05/19 03:26:27;;;;;;;4.50;2.90;;;;;;;17.49;76.45;101226.44;107729;1279;61112;-87
2022/05/19 03:29:03;;;;;;;5.40;3.20;;;;;;;17.48;76.38;101227.80;107761;1279;75671;-87
2022/05/19 03:31:38;;;;;;;7.30;3.40;;;;;;;17.47;76.31;101225.61;107893;1279;71481;-87
2022/05/19 03:34:11;;;;;;;4.90;3.00;;;;;;;17.45;76.47;101227.84;108080;1278;74749;-87
2022/05/19 03:36:43;;;;;;;5.60;3.10;;;;;;;17.43;76.43;101226.64;108059;1279;62399;-88
2022/05/19 03:39:23;;;;;;;3.60;3.10;;;;;;;17.42;76.39;101226.28;108051;1279;61759;-88
2022/05/19 03:41:50;;;;;;;6.10;4.00;;;;;;;17.41;76.47;101227.55;108065;1279;76247;-87
2022/05/19 03:44:35;;;;;;;5.60;3.60;;;;;;;17.40;76.32;101227.67;108073;1279;73266;-89
2022/05/19 03:47:12;;;;;;;5.00;2.90;;;;;;;17.38;76.31;101225.63;107856;1279;73849;-88
2022/05/19 03:49:49;;;;;;;4.20;2.90;;;;;;;17.40;76.26;101225.98;107955;1279;62884;-88
2022/05/19 03:52:17;;;;;;;4.60;3.30;;;;;;;17.44;76.26;101225.98;107902;1279;61931;-89
2022/05/19 03:54:45;;;;;;;4.40;2.90;;;;;;;17.48;76.01;101223.84;107891;1279;76240;-88
2022/05/19 03:57:13;;;;;;;6.00;3.70;;;;;;;17.54;75.86;101228.78;107844;1280;70980;-88
2022/05/19 03:59:54;;;;;;;4.80;2.60;;;;;;;17.58;75.65;101216.36;107791;1279;74146;-87
2022/05/19 04:02:41;;;;;;;6.30;3.50;;;;;;;17.68;75.44;101221.91;107744;1279;64614;-87
2022/05/19 04:05:14;;;;;;;5.20;3.40;;;;;;;17.77;75.11;101227.89;107913;1279;61382;-88
2022/05/19 04:07:56;;;;;;;4.40;3.00;;;;;;;17.85;74.81;101226.95;107702;1279;76169;-87
2022/05/19 04:10:26;;;;;;;5.00;2.80;;;;;;;17.93;74.55;101225.89;107886;1279;72478;-88
2022/05/19 04:12:53;;;;;;;5.10;2.90;;;;;;;17.99;74.27;101227.98;107831;1280;72940;-87
2022/05/19 04:15:20;;;;;;;6.40;3.30;;;;;;;18.04;73.97;101227.64;107955;1278;61102;-86
2022/05/19 04:17:50;;;;;;;4.40;2.80;;;;;;;18.09;73.70;101226.55;107666;1279;60585;-87
2022/05/19 04:20:17;;;;;;;5.30;2.70;;;;;;;18.13;73.65;101229.71;107814;1270;74596;-86
2022/05/19 04:22:43;;;;;;;4.80;3.40;;;;;;;18.14;73.41;101229.75;107666;1281;75771;-85
2022/05/19 04:25:11;;;;;;;7.30;3.00;;;;;;;18.21;73.38;101233.83;107763;1280;72840;-84
2022/05/19 04:27:38;;;;;;;3.60;3.10;;;;;;;18.26;73.11;101232.09;107580;1279;61434;-83
2022/05/19 04:30:06;;;;;;;3.80;3.00;;;;;;;18.30;72.92;101226.47;107648;1279;60966;-85
2022/05/19 04:32:39;;;;;;;4.50;3.10;;;;;;;18.35;72.76;101229.38;107701;1280;73465;-84
2022/05/19 04:35:10;;;;;;;5.00;2.70;;;;;;;18.40;72.58;101226.92;107767;1278;71592;-84
2022/05/19 04:37:37;;;;;;;4.60;3.10;;;;;;;18.45;72.29;101229.85;107683;1279;73084;-84
2022/05/19 04:40:05;;;;;;;9.70;2.80;;;;;;;18.50;71.96;101230.84;107789;1279;63958;-83
2022/05/19 04:42:32;;;;;;;4.70;3.20;;;;;;;18.57;71.60;101231.52;107623;1279;61498;-84
2022/05/19 04:44:59;;;;;;;6.40;3.30;;;;;;;18.65;71.25;101232.22;107913;1279;76508;-84
2022/05/19 04:47:26;;;;;;;4.20;3.30;;;;;;;18.74;70.85;101235.72;107810;1279;72153;-84
2022/05/19 04:49:53;;;;;;;3.70;2.70;;;;;;;18.84;70.62;101234.65;108257;1279;72987;-84
2022/05/19 04:52:20;;;;;;;6.70;2.70;;;;;;;18.91;70.28;101239.11;108163;1279;64489;-84
2022/05/19 04:54:50;;;;;;;5.60;2.90;;;;;;;18.98;70.00;101233.82;108035;1279;60769;-84
2022/05/19 04:57:17;;;;;;;5.30;3.30;;;;;;;19.06;69.78;101235.47;108247;1279;77039;-84
2022/05/19 04:59:44;;;;;;;3.80;3.00;;;;;;;19.12;69.67;101237.05;107887;1279;71595;-83
2022/05/19 05:02:11;;;;;;;4.00;2.80;;;;;;;19.18;69.55;101241.81;107866;1279;59546;-84
2022/05/19 05:04:38;;;;;;;6.30;3.20;;;;;;;19.24;69.33;101238.30;107970;1279;63353;-84
2022/05/19 05:07:07;;;;;;;5.10;3.00;;;;;;;19.29;69.35;101237.64;107589;1279;60584;-84
2022/05/19 05:09:35;;;;;;;3.60;2.90;;;;;;;19.37;69.19;101243.53;107942;1279;74366;-84
2022/05/19 05:12:02;;;;;;;3.50;2.60;;;;;;;19.45;68.86;101243.73;107759;1279;71556;-84
2022/05/19 05:14:29;;;;;;;4.60;3.30;;;;;;;19.54;68.50;101245.41;107675;1279;74526;-83
2022/05/19 05:16:56;;;;;;;7.90;3.00;;;;;;;19.63;68.27;101253.00;107937;1279;63251;-83
2022/05/19 05:19:24;;;;;;;3.50;2.60;;;;;;;19.71;68.02;101253.07;107677;1279;60753;-83
2022/05/19 05:21:54;;;;;;;5.00;2.30;;;;;;;19.79;67.76;101253.20;107516;1279;74789;-84
2022/05/19 05:24:22;;;;;;;3.70;2.50;;;;;;;19.87;67.35;101250.92;107512;1279;71533;-84
2022/05/19 05:26:48;;;;;;;7.90;3.10;;;;;;;19.95;67.22;101253.91;107964;1279;73859;-84
2022/05/19 05:29:15;;;;;;;3.50;2.90;;;;;;;20.04;67.16;101259.08;107933;1277;61547;-86
2022/05/19 05:31:42;;;;;;;5.20;3.00;;;;;;;20.11;66.60;101260.31;107971;1279;60542;-82
2022/05/19 05:34:08;;;;;;;3.40;2.80;;;;;;;20.18;66.64;101255.02;107728;1281;75036;-83
2022/05/19 05:36:35;;;;;;;4.30;2.70;;;;;;;20.24;66.25;101257.52;108079;1279;58961;-83
2022/05/19 05:39:01;;;;;;;5.70;4.00;;;;;;;20.31;65.68;101258.05;107826;1279;74081;-83
2022/05/19 05:41:28;;;;;;;12.60;6.10;;;;;;;20.40;65.56;101254.34;107700;1280;59854;-82
2022/05/19 05:43:55;;;;;;;4.20;2.70;;;;;;;20.49;65.16;101259.00;107751;1274;60706;-83
2022/05/19 05:46:22;;;;;;;4.20;2.90;;;;;;;20.58;64.55;101263.87;108014;1279;75895;-83
2022/05/19 05:48:48;;;;;;;4.40;2.60;;;;;;;20.68;64.26;101259.26;107940;1277;72484;-82
2022/05/19 05:51:17;;;;;;;3.60;2.10;;;;;;;20.80;63.62;101256.11;108102;1277;73138;-82
2022/05/19 05:53:45;;;;;;;4.10;2.70;;;;;;;20.92;63.32;101256.04;107975;1278;60739;-82
2022/05/19 05:56:15;;;;;;;3.70;2.50;;;;;;;21.01;62.74;101259.80;108066;1277;61606;-82
2022/05/19 05:58:42;;;;;;;3.80;2.20;;;;;;;21.09;62.27;101259.72;107782;1279;75045;-83
2022/05/19 06:01:11;;;;;;;5.40;2.70;;;;;;;21.17;61.88;101271.03;108077;1279;71404;-83
2022/05/19 06:03:38;;;;;;;5.40;3.10;;;;;;;21.25;61.61;101265.19;107987;1278;73976;-83
2022/05/19 06:06:08;;;;;;;5.20;3.80;;;;;;;21.36;61.55;101269.67;107987;1278;61762;-83
2022/05/19 06:08:34;;;;;;;10.80;7.30;;;;;;;21.45;60.76;101264.27;108071;1277;61534;-84
2022/05/19 06:11:02;;;;;;;5.80;2.30;;;;;;;21.53;60.44;101264.71;107809;1279;74866;-83
2022/05/19 06:13:31;;;;;;;5.60;2.40;;;;;;;21.61;59.96;101271.27;107840;1281;72537;-82
2022/05/19 06:15:58;;;;;;;7.60;2.70;;;;;;;21.69;59.62;101276.73;107752;1279;72943;-82
2022/05/19 06:18:25;;;;;;;2.80;2.20;;;;;;;21.79;59.60;101279.92;108080;1281;60402;-82
2022/05/19 06:20:52;;;;;;;2.90;2.00;;;;;;;21.89;58.84;101278.09;108015;1281;60583;-82
2022/05/19 06:23:18;;;;;;;3.00;2.20;;;;;;;21.95;57.95;101281.34;108370;1281;75012;-82
2022/05/19 06:25:46;;;;;;;4.50;2.10;;;;;;;22.01;56.58;101283.94;108360;1279;71477;-82
2022/05/19 06:28:14;;;;;;;4.00;1.90;;;;;;;22.07;56.75;101280.11;107957;1281;72974;-82
2022/05/19 06:30:41;;;;;;;3.60;2.20;;;;;;;22.19;57.11;101280.81;107940;1281;61456;-82
2022/05/19 06:33:09;;;;;;;5.70;2.20;;;;;;;22.31;56.11;101278.13;108100;1281;60374;-83
2022/05/19 06:35:37;;;;;;;2.40;1.70;;;;;;;22.45;55.59;101275.91;107818;1281;75082;-82
2022/05/19 06:38:04;;;;;;;4.20;2.30;;;;;;;22.59;54.45;101278.07;108171;1281;72260;-82
2022/05/19 06:40:31;;;;;;;3.20;1.60;;;;;;;22.71;54.33;101277.80;108021;1280;74141;-82
2022/05/19 06:42:58;;;;;;;4.40;2.10;;;;;;;22.83;53.22;101276.85;107780;1280;60302;-82
2022/05/19 06:45:27;;;;;;;3.60;1.80;;;;;;;22.89;52.69;101269.71;108030;1279;60330;-82
2022/05/19 06:47:54;;;;;;;4.30;1.90;;;;;;;23.00;52.61;101270.34;107991;1279;76477;-82
2022/05/19 06:50:22;;;;;;;2.90;1.70;;;;;;;23.09;52.18;101272.86;107687;1281;71542;-83
2022/05/19 06:53:00;;;;;;;8.40;1.90;;;;;;;23.23;52.28;101271.35;107788;1281;71660;-82
2022/05/19 06:55:27;;;;;;;3.40;1.90;;;;;;;23.36;50.37;101273.19;107668;1281;60389;-83
2022/05/19 06:57:54;;;;;;;2.60;2.00;;;;;;;23.49;49.26;101266.88;107893;1281;60714;-83
2022/05/19 07:00:23;;;;;;;5.60;2.20;;;;;;;23.67;49.67;101261.55;108077;1279;74882;-84
2022/05/19 07:02:53;;;;;;;2.80;1.90;;;;;;;23.88;48.70;101262.62;107936;1281;71344;-84
2022/05/19 07:05:24;;;;;;;3.20;2.00;;;;;;;24.05;48.23;101259.21;107742;1281;74502;-83
2022/05/19 07:07:51;;;;;;;3.30;2.10;;;;;;;24.17;47.07;101265.10;107743;1281;60841;-83
2022/05/19 07:10:21;;;;;;;2.70;1.90;;;;;;;24.23;46.98;101259.16;108048;1281;61837;-83
2022/05/19 07:12:48;;;;;;;3.00;2.00;;;;;;;24.32;46.96;101256.07;107626;1281;75722;-83
2022/05/19 07:15:19;;;;;;;4.60;2.10;;;;;;;24.30;45.93;101253.02;107904;1280;71496;-83
2022/05/19 07:17:46;;;;;;;3.80;2.00;;;;;;;24.32;46.23;101246.05;107831;1281;73030;-84
2022/05/19 07:22:58;;;;;;;4.00;1.60;;;;;;;24.40;45.85;101255.14;108082;1280;61072;-85
2022/05/19 07:25:26;;;;;;;3.00;1.70;;;;;;;24.39;45.33;101251.91;107940;1281;75027;-85
2022/05/19 07:27:52;;;;;;;3.60;2.30;;;;;;;24.38;45.25;101250.38;108069;1279;71320;-85
2022/05/19 07:30:19;;;;;;;6.10;1.70;;;;;;;24.40;45.45;101249.82;108081;1279;75838;-85
2022/05/19 07:32:46;;;;;;;2.70;1.70;;;;;;;24.43;45.24;101248.39;107993;1281;62190;-85
2022/05/19 07:35:16;;;;;;;5.50;1.70;;;;;;;24.46;45.00;101243.27;108036;1281;60575;-84
2022/05/19 07:37:42;;;;;;;4.60;1.90;;;;;;;24.51;45.59;101236.09;107944;1279;74931;-83
2022/05/19 07:40:11;;;;;;;6.00;1.70;;;;;;;24.58;46.05;101228.67;107680;1281;73227;-83
2022/05/19 07:42:38;;;;;;;4.20;1.60;;;;;;;24.69;45.81;101229.44;107911;1281;72992;-83
2022/05/19 07:45:05;;;;;;;3.90;1.70;;;;;;;24.77;44.96;101227.94;107966;1281;60990;-83
2022/05/19 07:47:32;;;;;;;2.60;1.50;;;;;;;24.87;45.41;101224.18;107986;1279;61452;-82
2022/05/19 07:49:59;;;;;;;4.70;1.90;;;;;;;25.00;45.04;101223.25;107865;1280;74952;-83
2022/05/19 07:52:32;;;;;;;3.20;1.60;;;;;;;25.05;43.91;101222.64;107718;1281;72073;-82
2022/05/19 07:54:59;;;;;;;3.90;1.80;;;;;;;25.04;44.52;101215.74;107825;1281;58799;-82
2022/05/19 07:57:25;;;;;;;4.30;1.90;;;;;;;25.12;44.70;101217.39;107894;1281;59159;-82
2022/05/19 07:59:52;;;;;;;3.90;1.50;;;;;;;25.25;44.84;101215.11;107829;1281;59179;-82
2022/05/19 08:02:19;;;;;;;3.40;1.80;;;;;;;25.44;45.27;101207.64;108008;1277;74839;-81
2022/05/19 08:04:46;;;;;;;2.00;1.60;;;;;;;25.60;44.03;101209.77;107985;1279;71967;-81
2022/05/19 08:07:13;;;;;;;2.70;1.50;;;;;;;25.70;43.28;101209.54;107873;1280;74106;-81
2022/05/19 08:17:58;;;;;;;5.80;2.00;;;;;;;25.91;41.41;101206.39;107907;1279;71598;-84
2022/05/19 08:20:28;;;;;;;3.30;1.70;;;;;;;25.84;41.08;101208.34;108094;1279;59345;-85
2022/05/19 08:22:55;;;;;;;4.30;1.80;;;;;;;25.77;40.89;101207.02;107812;1281;62457;-85
2022/05/19 08:25:27;;;;;;;3.80;1.60;;;;;;;25.64;41.32;101203.40;107735;1281;60534;-85
2022/05/19 08:27:55;;;;;;;2.70;1.60;;;;;;;25.59;42.07;101204.63;107914;1281;73932;-85
2022/05/19 08:30:23;;;;;;;4.20;1.60;;;;;;;25.52;41.60;101206.92;108381;1280;71406;-85
2022/05/19 08:32:50;;;;;;;4.70;1.90;;;;;;;25.46;41.17;101202.82;108039;1281;73027;-84
2022/05/19 08:35:17;;;;;;;4.90;1.80;;;;;;;25.30;41.46;101211.73;107701;1281;60631;-85
2022/05/19 08:37:43;;;;;;;3.40;1.90;;;;;;;25.18;41.85;101209.55;107978;1279;60662;-85
2022/05/19 08:40:10;;;;;;;10.90;1.70;;;;;;;25.10;42.50;101205.74;107813;1281;59571;-86
2022/05/19 08:42:41;;;;;;;3.70;2.10;;;;;;;25.08;43.34;101205.67;107780;1281;69372;-87
2022/05/19 08:45:21;;;;;;;3.70;1.70;;;;;;;25.13;44.07;101202.78;107741;1281;73078;-86
2022/05/19 08:47:49;;;;;;;5.90;2.00;;;;;;;25.19;43.60;101204.63;107698;1281;60772;-85
2022/05/19 08:50:41;;;;;;;3.80;1.80;;;;;;;25.26;42.94;101207.73;107995;1281;59598;-86
2022/05/19 08:53:11;;;;;;;2.50;1.40;;;;;;;25.37;42.04;101208.41;107857;1280;75209;-85
2022/05/19 08:55:41;;;;;;;3.60;1.70;;;;;;;25.53;40.94;101208.56;107955;1281;71454;-85
2022/05/19 08:58:25;;;;;;;4.50;1.80;;;;;;;25.66;41.51;101205.38;107943;1280;72987;-85
2022/05/19 09:01:11;;;;;;;4.00;1.80;;;;;;;25.88;42.14;101207.52;108032;1278;61056;-84
2022/05/19 09:03:46;;;;;;;7.00;2.00;;;;;;;26.03;41.37;101196.11;107447;1281;368056;-85
2022/05/19 09:06:31;;;;;;;3.60;2.00;;;;;;;26.04;40.55;101196.83;107690;1279;74637;-85
2022/05/19 09:09:25;;;;;;;5.10;2.40;;;;;;;26.17;40.74;101188.11;107827;1281;70923;-85
2022/05/19 09:12:05;;;;;;;6.00;2.30;;;;;;;26.36;40.98;101182.83;107742;1281;74204;-84
2022/05/19 09:14:32;;;;;;;3.80;1.80;;;;;;;26.54;41.18;101182.82;107950;1281;63023;-84
2022/05/19 09:17:03;;;;;;;5.00;2.10;;;;;;;26.63;40.35;101169.96;107873;1281;60644;-84
2022/05/19 09:19:53;;;;;;;5.20;1.70;;;;;;;26.70;40.23;101170.32;107725;1281;74852;-84
2022/05/19 09:22:26;;;;;;;2.70;1.80;;;;;;;26.80;40.04;101164.89;107666;1281;71294;-84
2022/05/19 09:24:53;;;;;;;4.00;1.90;;;;;;;26.95;39.44;101161.02;107723;1281;74991;-83
2022/05/19 09:27:22;;;;;;;2.30;1.50;;;;;;;27.07;39.09;101162.91;107782;1281;60475;-85
2022/05/19 09:29:52;;;;;;;3.80;1.70;;;;;;;27.21;38.78;101157.25;107894;1281;60543;-85
2022/05/19 09:32:29;;;;;;;3.00;2.00;;;;;;;27.35;39.00;101157.61;107649;1281;74032;-83
2022/05/19 09:35:10;;;;;;;3.60;1.60;;;;;;;27.56;38.68;101165.77;107936;1281;71441;-84
2022/05/19 09:37:49;;;;;;;3.80;1.90;;;;;;;27.63;37.74;101163.30;108009;1279;72221;-84
2022/05/19 09:40:22;;;;;;;2.50;1.60;;;;;;;27.74;38.16;101154.92;107871;1280;60487;-84
2022/05/19 09:43:21;;;;;;;4.30;1.80;;;;;;;27.84;37.67;101156.57;107839;1281;62435;-83
2022/05/19 09:45:58;;;;;;;4.20;1.80;;;;;;;27.90;37.26;101159.62;108027;1279;76023;-83
2022/05/19 09:48:30;;;;;;;2.60;1.50;;;;;;;27.99;35.94;101157.61;107922;1280;70534;-84
2022/05/19 09:51:05;;;;;;;3.70;1.50;;;;;;;28.08;35.60;101164.83;107834;1281;74279;-85
2022/05/19 09:53:41;;;;;;;5.70;1.60;;;;;;;28.13;35.93;101160.92;107643;1281;60669;-84
2022/05/19 09:56:12;;;;;;;4.40;1.40;;;;;;;28.25;36.31;101159.52;107796;1281;60632;-84
2022/05/19 09:58:44;;;;;;;7.20;1.70;;;;;;;28.34;35.42;101160.18;108018;1279;74382;-85
2022/05/19 10:01:25;;;;;;;3.00;1.70;;;;;;;28.44;35.54;101162.41;108032;1280;72699;-85
2022/05/19 10:03:59;;;;;;;5.40;1.70;;;;;;;28.60;35.13;101163.59;107842;1281;71927;-85
2022/05/19 10:06:45;;;;;;;3.00;1.80;;;;;;;28.73;35.12;101165.17;108014;1279;60797;-84
2022/05/19 10:09:17;;;;;;;2.20;1.40;;;;;;;28.80;34.38;101165.71;108002;1279;60702;-84
2022/05/19 10:11:54;;;;;;;3.10;1.50;;;;;;;28.84;34.86;101156.23;107736;1279;76131;-85
2022/05/19 10:14:27;;;;;;;3.30;1.50;;;;;;;29.01;35.08;101149.95;107894;1281;72863;-85
2022/05/19 10:17:13;;;;;;;2.30;1.50;;;;;;;29.10;34.98;101142.56;107843;1281;73328;-85
2022/05/19 10:19:57;;;;;;;4.00;1.90;;;;;;;29.12;34.31;101139.27;107756;1281;60392;-84
2022/05/19 10:22:50;;;;;;;2.10;1.30;;;;;;;29.12;34.39;101138.35;107865;1281;61035;-85
2022/05/19 10:25:34;;;;;;;3.60;1.80;;;;;;;29.04;34.35;101128.18;107853;1281;78528;-85
2022/05/19 10:31:20;;;;;;;5.30;1.60;;;;;;;29.21;34.55;101111.09;108026;1279;73054;-84
2022/05/19 10:34:35;;;;;;;4.00;1.40;;;;;;;29.43;34.78;101105.77;107930;1279;60550;-83
2022/05/19 10:37:16;;;;;;;2.40;1.50;;;;;;;29.52;33.33;101106.41;107153;1281;61657;-84
2022/05/19 10:40:01;;;;;;;2.70;1.60;;;;;;;29.57;33.11;101104.05;107969;1281;74947;-86
2022/05/19 10:42:47;;;;;;;3.50;1.90;;;;;;;29.63;33.20;101111.41;107558;1281;73649;-85
2022/05/19 10:45:25;;;;;;;2.50;1.50;;;;;;;29.55;32.72;101115.00;107972;1279;72384;-86
2022/05/19 10:47:54;;;;;;;2.60;1.60;;;;;;;29.35;33.16;101107.38;107831;1281;60344;-85
2022/05/19 10:50:29;;;;;;;2.00;1.40;;;;;;;29.26;33.05;101099.34;107996;1279;63300;-86
2022/05/19 10:53:24;;;;;;;1.60;1.30;;;;;;;29.30;32.88;101100.17;107613;1281;75214;-85
2022/05/19 10:56:16;;;;;;;3.00;1.70;;;;;;;29.33;33.16;101093.03;107992;1279;71491;-84
2022/05/19 10:59:11;;;;;;;4.60;1.80;;;;;;;29.20;33.68;101086.02;107942;1281;73350;-83
2022/05/19 11:01:55;;;;;;;4.10;1.50;;;;;;;29.19;34.35;101080.56;108147;1281;60487;-84
2022/05/19 11:04:51;;;;;;;2.60;1.60;;;;;;;29.32;33.87;101083.75;108197;1280;59815;-84
2022/05/19 11:07:35;;;;;;;2.60;1.80;;;;;;;29.44;33.41;101082.18;108001;1281;74965;-83
2022/05/19 11:10:22;;;;;;;3.20;1.60;;;;;;;29.57;33.07;101081.84;108110;1279;72443;-83
2022/05/19 11:13:45;;;;;;;3.50;1.70;;;;;;;29.67;32.37;101079.65;108087;1279;72959;-85
2022/05/19 11:16:27;;;;;;;2.40;1.50;;;;;;;29.63;31.97;101090.09;107329;1285;60660;-86
2022/05/19 11:19:17;;;;;;;2.70;1.40;;;;;;;29.68;32.18;101073.02;107523;1284;62631;-85
2022/05/19 11:22:07;;;;;;;3.70;1.30;;;;;;;29.94;32.41;101062.05;107942;1281;76039;-85
2022/05/19 11:26:23;;;;;;;3.80;1.60;;;;;;;30.13;32.10;101048.41;107921;1279;72131;-85
2022/05/19 11:27:30;;;;;;;2.20;1.40;;;;;;;30.42;31.66;101038.29;108243;1280;72827;-85
2022/05/19 11:30:01;;;;;;;2.30;1.10;;;;;;;30.65;30.81;101033.61;108160;1281;60677;-85
2022/05/19 11:32:33;;;;;;;3.70;1.60;;;;;;;30.74;30.22;101032.81;108337;1279;61673;-85
2022/05/19 11:35:04;;;;;;;4.80;1.50;;;;;;;30.70;30.06;101026.59;108206;1281;76244;-85
2022/05/19 11:37:53;;;;;;;2.40;1.20;;;;;;;30.46;29.29;101024.23;108294;1279;71444;-83
2022/05/19 11:40:35;;;;;;;4.20;1.70;;;;;;;30.37;29.93;101028.07;108231;1281;72920;-83
2022/05/19 11:43:21;;;;;;;3.00;1.50;;;;;;;30.35;29.98;101024.50;107751;1281;64318;-83
2022/05/19 11:45:58;;;;;;;4.30;1.40;;;;;;;30.32;30.14;101020.53;107928;1280;61797;-84
2022/05/19 11:55:12;;;;;;;2.40;1.40;;;;;;;30.59;29.81;100997.19;108084;1279;73489;-85
2022/05/19 11:58:01;;;;;;;2.50;1.20;;;;;;;30.73;30.02;100987.99;107134;1286;61846;-85
2022/05/19 12:00:38;;;;;;;2.20;1.50;;;;;;;30.66;29.53;100986.13;107946;1281;59469;-85
2022/05/19 12:03:14;;;;;;;5.10;1.40;;;;;;;30.73;29.54;100982.61;107993;1281;74697;-85
2022/05/19 12:06:01;;;;;;;3.30;1.10;;;;;;;31.12;29.36;100977.59;107850;1281;70048;-85
2022/05/19 12:08:40;;;;;;;5.30;1.60;;;;;;;31.67;29.73;100966.77;107811;1281;74207;-85
2022/05/19 12:11:18;;;;;;;4.00;1.10;;;;;;;32.11;27.93;100960.33;107809;1281;60486;-85
2022/05/19 12:14:05;;;;;;;2.40;1.50;;;;;;;32.43;27.81;100956.91;107815;1281;61522;-85
2022/05/19 12:17:01;;;;;;;1.90;1.10;;;;;;;32.73;27.34;100964.23;107628;1282;75051;-85
2022/05/19 12:19:48;;;;;;;2.60;1.20;;;;;;;32.73;26.03;100965.77;107823;1281;71765;-85
2022/05/19 12:22:33;;;;;;;2.30;1.40;;;;;;;32.74;26.20;100964.59;107703;1281;73881;-85
2022/05/19 12:24:59;;;;;;;2.40;1.20;;;;;;;32.87;26.64;100961.90;108067;1281;62999;-85
2022/05/19 12:27:36;;;;;;;2.20;1.20;;;;;;;33.11;26.49;100961.34;107809;1281;59556;-83